Time;durP1;ratioP1;P1;durP2;ratioP2;P2;SDS_P1;SDS_P2;PMS_P1;PMS_P2;Temp;Humidity;BMP_temperature;BMP_pressure;BME280_temperature;BME280_humidity;BME280_pressure;Samples;Min_cycle;Max_cycle;Signal;HPM_P1;HPM_P2
2022/10/06 00:00:23;;;;;;;;;2.00;2.00;;;;;16.56;58.71;101977.69;5018419;28;45673;-59
2022/10/06 00:02:48;;;;;;;;;1.00;1.00;;;;;16.95;58.86;102046.94;5018102;28;45210;-59
2022/10/06 00:05:14;;;;;;;;;3.25;1.50;;;;;16.86;59.10;102048.28;5016646;28;45330;-59
2022/10/06 00:07:40;;;;;;;;;3.25;1.25;;;;;16.22;59.12;101954.84;5016989;28;45354;-59
2022/10/06 00:10:06;;;;;;;;;3.00;1.75;;;;;16.79;59.33;102051.94;5049970;28;46439;-59
2022/10/06 00:12:42;;;;;;;;;3.00;1.20;;;;;16.78;59.31;102055.81;5018153;28;45368;-59
2022/10/06 00:15:08;;;;;;;;;1.40;1.40;;;;;16.77;59.10;102061.56;5016963;28;45409;-59
2022/10/06 00:17:34;;;;;;;;;2.20;0.60;;;;;16.56;59.33;102038.66;5050038;28;45357;-60
2022/10/06 00:19:59;;;;;;;;;4.25;2.75;;;;;16.70;59.46;102069.91;5016539;28;47090;-59
2022/10/06 00:22:25;;;;;;;;;0.25;0.25;;;;;16.64;59.22;102065.22;5017574;28;45391;-59
2022/10/06 00:24:51;;;;;;;;;2.75;1.25;;;;;16.60;59.43;102077.84;5016712;28;45404;-59
2022/10/06 00:27:16;;;;;;;;;4.25;1.00;;;;;16.30;59.74;102042.38;5017909;28;45364;-59
2022/10/06 00:29:41;;;;;;;;;3.00;1.75;;;;;16.43;59.77;102072.78;5016163;28;45912;-59
2022/10/06 00:32:08;;;;;;;;;3.75;2.25;;;;;16.31;59.86;102077.31;5016142;28;45333;-59
2022/10/06 00:34:35;;;;;;;;;2.00;1.40;;;;;15.68;60.31;101988.19;5017854;28;45424;-59
2022/10/06 00:37:01;;;;;;;;;1.40;1.40;;;;;16.26;60.07;102089.91;5016754;28;45497;-59
2022/10/06 00:39:27;;;;;;;;;3.00;1.40;;;;;16.29;60.56;102113.56;4999481;28;46333;-60
2022/10/06 00:41:52;;;;;;;;;1.00;1.00;;;;;16.31;60.24;102113.31;5049549;28;45519;-60
2022/10/06 00:44:18;;;;;;;;;4.00;1.75;;;;;16.23;60.43;102114.41;5016562;28;45446;-60
2022/10/06 00:46:45;;;;;;;;;2.25;2.00;;;;;15.95;60.42;102079.53;5017935;28;45350;-59
2022/10/06 00:49:13;;;;;;;;;3.80;0.80;;;;;16.23;60.61;102131.88;5032710;28;47999;-59
2022/10/06 00:51:42;;;;;;;;;3.20;1.80;;;;;16.26;60.28;102127.81;5016057;28;45371;-59
2022/10/06 00:54:07;;;;;;;;;3.60;2.00;;;;;16.28;60.33;102124.84;5016109;28;45363;-59
2022/10/06 00:56:33;;;;;;;;;4.00;2.25;;;;;16.23;60.33;102111.66;5017705;28;45391;-59
2022/10/06 00:58:58;;;;;;;;;1.00;1.00;;;;;16.29;59.77;102126.53;5015332;28;45722;-60
2022/10/06 01:01:25;;;;;;;;;0.00;0.00;;;;;16.30;59.68;102131.00;5017605;28;45392;-59
2022/10/06 01:03:59;;;;;;;;;2.20;0.40;;;;;16.26;59.90;102127.81;5016115;28;45429;-60
2022/10/06 01:06:25;;;;;;;;;0.40;0.40;;;;;16.24;59.74;102122.50;4999681;28;45370;-60
2022/10/06 01:08:51;;;;;;;;;3.00;2.50;;;;;16.22;59.87;102118.25;5017320;28;46882;-60
2022/10/06 01:11:16;;;;;;;;;4.25;2.25;;;;;16.10;59.79;102134.66;5017148;28;45860;-60
2022/10/06 01:13:42;;;;;;;;;1.75;1.50;;;;;16.02;60.02;102132.13;5015947;28;45402;-60
2022/10/06 01:16:09;;;;;;;;;2.80;1.00;;;;;16.08;60.13;102139.56;5017184;28;45385;-59
2022/10/06 01:18:35;;;;;;;;;1.40;1.40;;;;;16.07;59.74;102137.88;4999155;28;46252;-60
2022/10/06 01:21:19;;;;;;;;;2.00;2.00;;;;;16.09;60.05;102139.38;4999170;28;45783;-60
2022/10/06 01:23:44;;;;;;;;;3.20;2.20;;;;;15.92;60.42;102135.34;5015779;28;45398;-60
2022/10/06 01:26:10;;;;;;;;;3.00;1.00;;;;;15.97;60.21;102147.47;5016042;28;45577;-60
2022/10/06 01:28:37;;;;;;;;;1.25;1.25;;;;;15.99;59.89;102150.88;5015178;28;46296;-60
2022/10/06 01:31:03;;;;;;;;;2.60;0.20;;;;;15.97;60.11;102147.47;5017129;28;45457;-60
2022/10/06 01:33:28;;;;;;;;;1.80;1.00;;;;;15.92;60.07;102149.19;5015509;28;45410;-60
2022/10/06 01:35:54;;;;;;;;;2.50;2.00;;;;;15.84;59.83;102144.66;5017200;28;45322;-60
2022/10/06 01:38:20;;;;;;;;;2.25;1.00;;;;;15.91;59.79;102158.53;5016639;28;45391;-60
2022/10/06 01:40:46;;;;;;;;;1.00;1.00;;;;;15.92;59.89;102163.88;5016471;28;45458;-60
2022/10/06 01:43:11;;;;;;;;;1.00;1.00;;;;;15.94;59.69;102158.97;5015408;28;45435;-60
2022/10/06 01:45:37;;;;;;;;;2.25;1.25;;;;;15.75;59.33;102130.22;5015565;28;45638;-59
2022/10/06 01:48:03;;;;;;;;;1.00;1.00;;;;;15.48;59.87;102094.19;5015387;28;45649;-59
2022/10/06 01:50:28;;;;;;;;;1.00;1.00;;;;;15.89;59.29;102164.25;5016404;28;45275;-59
2022/10/06 01:52:56;;;;;;;;;3.75;1.00;;;;;15.85;59.13;102161.06;5015312;28;45378;-59
2022/10/06 01:55:22;;;;;;;;;3.40;0.60;;;;;15.82;59.21;102166.19;5016725;28;45558;-58
2022/10/06 01:57:48;;;;;;;;;0.20;0.20;;;;;15.67;59.58;102158.06;5016301;28;46057;-58
2022/10/06 02:00:13;;;;;;;;;2.00;1.00;;;;;15.45;59.64;102123.16;5016351;28;45567;-59
2022/10/06 02:02:39;;;;;;;;;1.00;1.00;;;;;15.77;59.46;102168.72;4992086;28;45637;-59
2022/10/06 02:05:05;;;;;;;;;2.00;1.40;;;;;15.72;59.28;102161.94;5016423;28;45402;-59
2022/10/06 02:07:31;;;;;;;;;3.75;2.75;;;;;15.80;59.48;102168.31;5016427;28;46527;-59
2022/10/06 02:09:56;;;;;;;;;5.00;2.75;;;;;15.77;59.18;102180.66;5014739;28;45384;-59
2022/10/06 02:12:22;;;;;;;;;2.00;1.00;;;;;15.70;59.42;102165.97;5016639;28;45452;-59
2022/10/06 02:14:48;;;;;;;;;1.40;1.40;;;;;15.48;59.26;102143.16;5016246;28;45366;-59
2022/10/06 02:17:14;;;;;;;;;3.25;3.25;;;;;15.63;58.98;102165.13;5014977;28;46125;-59
2022/10/06 02:19:39;;;;;;;;;1.00;0.25;;;;;15.68;59.37;102176.38;5014666;28;46348;-59
2022/10/06 02:22:05;;;;;;;;;5.75;2.75;;;;;15.66;59.37;102179.38;5016090;28;45369;-59
2022/10/06 02:24:30;;;;;;;;;2.50;2.25;;;;;15.64;58.96;102175.13;5016459;28;45511;-59
2022/10/06 02:26:56;;;;;;;;;3.00;1.00;;;;;15.69;58.81;102192.78;5015949;28;45640;-59
2022/10/06 02:29:21;;;;;;;;;5.25;3.00;;;;;15.68;59.26;102187.44;5015330;28;45391;-59
2022/10/06 02:31:48;;;;;;;;;2.00;2.00;;;;;15.47;59.11;102160.84;5015644;28;45468;-59
2022/10/06 02:34:14;;;;;;;;;1.40;1.40;;;;;15.60;59.04;102205.13;5015783;28;45632;-59
2022/10/06 02:36:39;;;;;;;;;1.25;1.25;;;;;15.49;59.62;102206.59;5014378;28;45909;-58
2022/10/06 02:39:05;;;;;;;;;2.75;1.50;;;;;15.48;59.43;102202.09;5015324;28;45405;-58
2022/10/06 02:41:31;;;;;;;;;4.00;2.00;;;;;15.48;59.55;102207.63;5015638;28;45439;-59
2022/10/06 02:43:57;;;;;;;;;3.00;3.00;;;;;15.45;59.66;102206.16;5015479;28;45322;-59
2022/10/06 02:46:23;;;;;;;;;7.00;2.25;;;;;15.48;59.83;102209.56;5015375;28;46541;-59
2022/10/06 02:48:49;;;;;;;;;2.25;1.75;;;;;15.19;59.57;102165.44;5013903;28;45331;-59
2022/10/06 02:51:17;;;;;;;;;3.00;2.60;;;;;15.46;59.34;102212.53;5015702;28;45305;-59
2022/10/06 02:53:44;;;;;;;;;0.00;0.00;;;;;15.40;59.88;102211.47;5014238;28;45565;-58
2022/10/06 02:56:21;;;;;;;;;3.20;1.20;;;;;15.12;59.56;102165.44;5014124;28;46643;-58
2022/10/06 02:58:46;;;;;;;;;2.80;2.20;;;;;15.35;59.18;102213.13;5013466;28;45394;-58
2022/10/06 03:01:17;;;;;;;;;6.25;5.25;;;;;15.16;59.30;102180.53;5015586;28;45381;-59
2022/10/06 03:03:42;;;;;;;;;2.40;1.60;;;;;15.32;59.26;102211.66;5014075;28;45509;-59
2022/10/06 03:06:20;;;;;;;;;3.75;2.00;;;;;15.29;59.11;102220.38;5013410;28;46355;-59
2022/10/06 03:09:09;;;;;;;;;1.20;1.20;;;;;15.11;59.35;102198.81;5046822;28;45409;-59
2022/10/06 03:11:39;;;;;;;;;2.00;2.00;;;;;15.15;59.33;102206.50;5014743;28;45232;-58
2022/10/06 03:14:04;;;;;;;;;5.60;4.60;;;;;15.28;59.68;102226.97;5015076;28;45429;-59
2022/10/06 03:16:37;;;;;;;;;3.25;1.00;;;;;15.25;59.55;102222.69;5015078;28;45496;-59
2022/10/06 03:19:03;;;;;;;;;1.80;1.20;;;;;15.25;59.96;102232.88;5014981;28;45361;-59
2022/10/06 03:21:30;;;;;;;;;4.00;3.50;;;;;15.24;59.57;102234.81;5014595;28;45409;-59
2022/10/06 03:23:56;;;;;;;;;1.00;1.00;;;;;15.15;59.23;102231.38;5015292;28;45376;-59
2022/10/06 03:26:23;;;;;;;;;1.20;1.20;;;;;15.18;59.63;102241.19;5046623;28;46215;-59
2022/10/06 03:28:49;;;;;;;;;1.00;1.00;;;;;15.14;59.45;102248.16;5008077;28;45881;-59
2022/10/06 03:31:16;;;;;;;;;3.00;2.20;;;;;15.10;59.45;102242.19;4995719;28;45348;-59
2022/10/06 03:33:42;;;;;;;;;1.20;0.20;;;;;15.04;60.08;102227.28;5011586;28;45366;-58
2022/10/06 03:36:11;;;;;;;;;2.50;1.00;;;;;15.09;59.69;102232.19;5014100;28;45390;-58
2022/10/06 03:38:37;;;;;;;;;1.00;1.00;;;;;14.82;59.77;102201.66;5014887;28;45518;-58
2022/10/06 03:41:06;;;;;;;;;2.00;2.00;;;;;15.13;60.01;102257.53;5011870;28;45427;-58
2022/10/06 03:43:32;;;;;;;;;4.20;1.80;;;;;15.09;59.79;102265.38;5013949;28;45165;-59
2022/10/06 03:45:59;;;;;;;;;3.40;0.60;;;;;15.03;59.56;102258.78;5012575;28;46327;-59
2022/10/06 03:48:28;;;;;;;;;3.60;1.80;;;;;15.08;59.71;102271.09;5012388;28;45484;-59
2022/10/06 03:51:04;;;;;;;;;4.20;1.00;;;;;15.10;59.83;102275.38;5013228;28;45815;-59
2022/10/06 03:53:30;;;;;;;;;4.60;1.60;;;;;14.79;59.58;102226.09;5011061;28;45333;-59
2022/10/06 03:56:09;;;;;;;;;3.00;1.00;;;;;15.14;58.80;102287.75;5011284;28;45615;-58
2022/10/06 03:58:36;;;;;;;;;2.80;2.00;;;;;15.14;59.14;102293.28;5012895;28;45464;-58
2022/10/06 04:01:10;;;;;;;;;2.80;2.80;;;;;15.09;59.11;102286.66;5014592;28;45460;-59
2022/10/06 04:03:35;;;;;;;;;5.20;3.00;;;;;15.10;59.01;102289.22;5013340;28;45543;-59
2022/10/06 04:06:03;;;;;;;;;2.25;2.25;;;;;15.11;59.43;102293.69;5014025;28;46844;-59
2022/10/06 04:08:29;;;;;;;;;2.00;2.00;;;;;15.12;59.07;102306.47;5014567;28;45271;-59
2022/10/06 04:10:55;;;;;;;;;2.25;2.00;;;;;14.82;59.21;102267.13;5014467;28;45303;-59
2022/10/06 04:13:20;;;;;;;;;2.75;2.75;;;;;15.05;58.66;102313.84;5014905;28;45232;-59
2022/10/06 04:15:47;;;;;;;;;3.75;2.00;;;;;15.05;59.20;102311.06;5014222;28;46160;-59
2022/10/06 04:18:13;;;;;;;;;3.60;2.60;;;;;15.02;58.39;102309.59;5014207;28;45408;-59
2022/10/06 04:20:39;;;;;;;;;4.40;3.00;;;;;14.97;59.18;102309.34;5013050;28;45478;-58
2022/10/06 04:23:04;;;;;;;;;4.00;2.25;;;;;14.99;59.18;102325.75;5046400;28;45437;-58
2022/10/06 04:25:30;;;;;;;;;3.75;3.75;;;;;14.96;59.13;102318.72;5046190;28;46009;-59
2022/10/06 04:27:56;;;;;;;;;4.00;2.80;;;;;14.96;59.34;102317.84;5014284;28;45482;-59
2022/10/06 04:30:23;;;;;;;;;3.50;1.00;;;;;14.95;59.04;102319.78;5014026;28;45513;-59
2022/10/06 04:32:48;;;;;;;;;1.60;1.60;;;;;14.94;59.44;102320.81;5014032;28;45357;-58
2022/10/06 04:35:14;;;;;;;;;2.75;1.25;;;;;14.75;59.33;102323.25;5049175;28;45431;-59
2022/10/06 04:37:39;;;;;;;;;3.00;2.50;;;;;14.74;60.03;102317.91;5017719;28;45287;-58
2022/10/06 04:40:06;;;;;;;;;4.75;2.00;;;;;14.83;59.79;102335.22;5017330;28;45304;-59
2022/10/06 04:42:31;;;;;;;;;5.40;2.00;;;;;14.54;59.70;102292.84;5017682;28;45207;-59
2022/10/06 04:44:57;;;;;;;;;4.25;2.00;;;;;14.68;59.78;102333.34;5017054;28;46893;-59
2022/10/06 04:47:22;;;;;;;;;2.00;1.00;;;;;14.72;60.30;102329.13;5017255;28;45315;-59
2022/10/06 04:49:47;;;;;;;;;4.75;3.00;;;;;14.73;59.76;102339.13;5049390;28;45399;-59
2022/10/06 04:52:13;;;;;;;;;3.50;1.00;;;;;14.57;60.14;102306.28;5017496;28;45970;-59
2022/10/06 04:54:39;;;;;;;;;4.25;3.00;;;;;14.71;59.98;102341.25;5017344;28;46252;-59
2022/10/06 04:57:04;;;;;;;;;2.00;2.00;;;;;14.48;60.28;102305.56;5017025;28;45445;-59
2022/10/06 05:02:14;;;;;;;;;5.00;2.60;;;;;14.64;60.28;102343.09;4982549;28;45443;-59
2022/10/06 05:04:40;;;;;;;;;5.00;3.25;;;;;14.50;60.32;102334.72;4996093;28;46485;-60
2022/10/06 05:07:06;;;;;;;;;4.00;2.00;;;;;14.29;60.42;102318.16;4995878;28;45850;-59
2022/10/06 05:09:31;;;;;;;;;4.00;2.00;;;;;14.48;60.94;102349.78;4996147;28;45472;-59
2022/10/06 05:11:57;;;;;;;;;4.00;4.00;;;;;14.38;60.79;102350.09;4997117;28;45389;-59
2022/10/06 05:14:23;;;;;;;;;1.50;0.00;;;;;14.21;61.18;102347.59;4996947;28;47091;-59
2022/10/06 05:16:48;;;;;;;;;5.75;2.25;;;;;14.23;61.09;102348.28;4996061;28;45421;-59
2022/10/06 05:19:14;;;;;;;;;2.50;2.50;;;;;14.20;61.17;102351.41;4995570;28;45281;-58
2022/10/06 05:21:40;;;;;;;;;4.00;3.00;;;;;14.12;61.58;102351.56;4979520;28;45218;-58
2022/10/06 05:24:08;;;;;;;;;5.00;3.75;;;;;14.07;61.94;102348.53;4996851;28;45738;-58
2022/10/06 05:26:34;;;;;;;;;2.40;2.40;;;;;14.08;61.83;102351.09;4995399;28;45419;-58
2022/10/06 05:29:00;;;;;;;;;1.40;0.80;;;;;14.17;61.86;102357.34;4995584;28;45389;-59
2022/10/06 05:31:27;;;;;;;;;3.50;2.00;;;;;14.21;61.17;102346.75;4979403;28;45551;-59
2022/10/06 05:33:56;;;;;;;;;9.80;4.00;;;;;14.33;61.14;102359.00;4997018;28;46157;-60
2022/10/06 05:36:24;;;;;;;;;3.20;2.20;;;;;14.35;60.97;102369.81;4997093;28;45243;-60
2022/10/06 05:38:49;;;;;;;;;2.80;2.80;;;;;14.22;60.58;102340.19;4995919;28;45392;-60
2022/10/06 05:41:22;;;;;;;;;4.75;3.00;;;;;14.35;60.91;102372.59;4995607;28;45348;-59
2022/10/06 05:43:48;;;;;;;;;2.80;2.20;;;;;14.34;60.83;102373.63;4996477;28;46165;-59
2022/10/06 05:46:18;;;;;;;;;5.25;3.00;;;;;14.29;60.76;102362.34;4995189;28;45569;-60
2022/10/06 05:48:48;;;;;;;;;3.40;1.60;;;;;14.42;60.29;102379.06;4995401;28;45368;-60
2022/10/06 05:51:13;;;;;;;;;4.00;2.60;;;;;14.39;60.66;102384.09;4995451;28;45586;-60
2022/10/06 05:53:39;;;;;;;;;3.00;2.00;;;;;14.39;60.95;102381.31;4995442;28;46106;-60
2022/10/06 05:56:15;;;;;;;;;5.25;4.00;;;;;14.44;60.43;102384.34;4996755;28;45347;-60
2022/10/06 05:58:43;;;;;;;;;4.40;2.20;;;;;14.37;60.25;102389.84;4986691;28;45451;-58
2022/10/06 06:01:13;;;;;;;;;3.60;2.40;;;;;14.00;60.69;102336.56;5016858;28;45326;-57
2022/10/06 06:03:39;;;;;;;;;3.00;2.80;;;;;14.18;60.94;102391.31;5016492;28;45536;-59
2022/10/06 06:06:31;;;;;;;;;6.20;4.00;;;;;14.27;61.10;102392.06;4998784;28;45432;-60
2022/10/06 06:08:58;;;;;;;;;3.00;1.00;;;;;14.31;60.46;102396.16;5014951;28;45197;-60
2022/10/06 06:11:27;;;;;;;;;3.40;2.00;;;;;14.31;60.65;102387.84;5014878;28;45684;-60
2022/10/06 06:13:55;;;;;;;;;2.60;2.00;;;;;14.12;60.55;102362.59;5015078;28;48186;-60
2022/10/06 06:16:20;;;;;;;;;2.40;2.40;;;;;14.31;61.06;102387.84;5016209;28;45419;-59
2022/10/06 06:18:46;;;;;;;;;4.00;2.25;;;;;14.32;60.58;102389.56;5048243;28;45410;-60
2022/10/06 06:21:11;;;;;;;;;3.75;2.25;;;;;14.32;60.27;102384.03;5016674;28;45583;-59
2022/10/06 06:23:43;;;;;;;;;4.25;2.00;;;;;14.31;60.81;102401.66;5015884;28;45274;-59
2022/10/06 06:26:10;;;;;;;;;8.00;5.00;;;;;14.30;60.48;102405.50;5016107;28;45326;-60
2022/10/06 06:28:35;;;;;;;;;2.80;1.40;;;;;14.13;60.93;102380.88;5047884;28;45331;-59
2022/10/06 06:31:13;;;;;;;;;4.00;3.00;;;;;13.84;61.02;102344.03;5014540;28;45395;-60
2022/10/06 06:33:39;;;;;;;;;2.40;2.00;;;;;14.19;61.35;102413.22;5015831;28;45605;-59
2022/10/06 06:36:18;;;;;;;;;4.20;4.00;;;;;14.23;60.73;102422.84;5013986;28;45455;-60
2022/10/06 06:38:50;;;;;;;;;5.00;2.20;;;;;14.22;60.58;102421.13;5015773;28;45335;-58
2022/10/06 06:41:19;;;;;;;;;4.40;2.60;;;;;14.06;61.31;102424.13;5014130;28;45575;-59
2022/10/06 06:43:45;;;;;;;;;6.00;5.00;;;;;13.98;60.92;102418.72;5015031;28;45238;-59
2022/10/06 06:46:11;;;;;;;;;3.50;1.75;;;;;13.60;61.52;102354.34;5015551;28;45334;-60
2022/10/06 06:48:36;;;;;;;;;3.20;2.00;;;;;13.91;61.36;102427.78;5015225;28;45267;-59
2022/10/06 06:51:03;;;;;;;;;2.00;1.75;;;;;13.82;61.75;102424.25;5015426;28;45314;-57
2022/10/06 06:53:28;;;;;;;;;4.60;2.60;;;;;13.90;61.66;102428.81;5015210;28;46299;-59
2022/10/06 06:55:54;;;;;;;;;4.75;2.75;;;;;14.01;61.54;102443.16;5013163;28;45568;-59
2022/10/06 06:58:19;;;;;;;;;4.00;3.00;;;;;14.05;61.61;102442.56;5011033;28;45460;-59
2022/10/06 07:00:46;;;;;;;;;4.00;3.00;;;;;13.98;60.97;102421.47;4994092;28;45732;-57
2022/10/06 07:03:13;;;;;;;;;3.40;3.40;;;;;14.15;61.00;102453.31;4995352;28;45644;-58
2022/10/06 07:05:39;;;;;;;;;3.20;1.40;;;;;14.16;61.29;102449.53;4977726;28;45290;-59
2022/10/06 07:08:08;;;;;;;;;7.00;6.00;;;;;14.23;60.87;102455.09;4993924;28;45434;-60
2022/10/06 07:10:35;;;;;;;;;4.20;3.40;;;;;13.78;61.14;102384.28;4995435;28;45469;-61
2022/10/06 07:13:01;;;;;;;;;4.80;2.60;;;;;14.29;60.70;102467.31;4995159;28;45538;-60
2022/10/06 07:26:22;;;;;;;;;5.80;2.80;;;;;14.43;60.76;102479.34;4994024;28;45393;-59
2022/10/06 07:28:48;;;;;;;;;6.50;4.50;;;;;14.45;60.45;102486.38;4993669;28;45619;-60
2022/10/06 07:31:16;;;;;;;;;4.40;2.80;;;;;14.32;60.15;102480.72;4994938;28;45684;-60
2022/10/06 07:33:42;;;;;;;;;3.80;3.80;;;;;14.25;60.78;102475.09;4965425;28;47655;-59
2022/10/06 07:36:08;;;;;;;;;6.50;3.00;;;;;14.32;60.20;102487.09;4971421;28;45770;-59
2022/10/06 07:38:35;;;;;;;;;2.80;2.20;;;;;14.25;60.64;102488.06;5026774;28;45330;-60
2022/10/06 07:41:00;;;;;;;;;3.80;2.00;;;;;14.24;60.58;102489.94;4977428;28;45480;-60
2022/10/06 07:43:26;;;;;;;;;5.00;5.00;;;;;14.31;61.09;102496.41;4994759;28;46168;-60
2022/10/06 07:45:52;;;;;;;;;4.00;2.75;;;;;14.35;61.18;102494.97;4995040;28;45592;-60
2022/10/06 07:48:21;;;;;;;;;3.75;3.50;;;;;14.39;61.23;102498.22;4994998;28;45426;-60
2022/10/06 07:50:48;;;;;;;;;7.00;3.60;;;;;14.42;60.64;102496.97;4995323;28;45452;-58
2022/10/06 07:53:16;;;;;;;;;5.40;3.40;;;;;14.53;60.56;102502.00;4993155;28;45651;-60
2022/10/06 07:55:44;;;;;;;;;7.80;4.00;;;;;14.57;60.62;102500.53;4995178;28;45390;-60
2022/10/06 07:58:13;;;;;;;;;4.20;3.40;;;;;14.47;60.47;102480.66;4992435;28;45456;-60
2022/10/06 08:00:40;;;;;;;;;5.40;3.20;;;;;14.69;59.96;102516.59;5011013;28;45430;-62
2022/10/06 08:03:06;;;;;;;;;3.60;2.80;;;;;14.71;60.35;102508.97;5000272;28;45425;-59
2022/10/06 08:05:31;;;;;;;;;5.00;3.50;;;;;14.53;59.57;102481.78;5011770;28;45779;-59
2022/10/06 08:07:57;;;;;;;;;6.00;2.75;;;;;14.74;60.14;102517.75;5014925;28;45364;-59
2022/10/06 08:10:25;;;;;;;;;5.00;2.25;;;;;14.81;60.12;102522.47;5015930;28;45649;-59
2022/10/06 08:12:50;;;;;;;;;2.40;2.00;;;;;14.77;59.77;102516.50;5015382;28;45423;-58
2022/10/06 08:15:17;;;;;;;;;5.00;4.25;;;;;14.62;59.62;102486.16;5016689;28;45988;-58
2022/10/06 08:17:43;;;;;;;;;9.00;5.80;;;;;14.52;59.94;102469.03;5015616;28;45791;-57
2022/10/06 08:20:10;;;;;;;;;5.25;4.25;;;;;14.62;59.56;102484.22;5015609;28;45605;-60
2022/10/06 08:22:37;;;;;;;;;3.80;3.60;;;;;14.57;59.97;102467.38;5014333;28;46479;-60
2022/10/06 08:25:04;;;;;;;;;6.40;4.40;;;;;14.99;59.61;102536.72;5048215;28;46822;-61
2022/10/06 08:27:29;;;;;;;;;6.75;4.50;;;;;15.03;59.82;102535.28;5017294;28;45432;-60
2022/10/06 08:29:55;;;;;;;;;6.25;3.50;;;;;15.08;59.26;102533.81;5017409;28;45444;-61
2022/10/06 08:32:21;;;;;;;;;6.25;4.00;;;;;14.87;59.15;102502.34;4999125;28;47173;-60
2022/10/06 08:34:47;;;;;;;;;5.20;5.20;;;;;15.12;59.13;102532.34;4999463;28;45421;-59
2022/10/06 08:37:19;;;;;;;;;3.40;2.80;;;;;15.17;59.18;102546.44;5010610;28;45392;-59
2022/10/06 08:39:45;;;;;;;;;6.40;3.60;;;;;15.21;59.07;102550.50;5011855;28;45547;-63
2022/10/06 08:42:17;;;;;;;;;6.50;4.00;;;;;15.09;58.73;102527.25;5049503;28;45473;-60
2022/10/06 08:44:47;;;;;;;;;3.00;2.00;;;;;15.27;59.19;102549.72;5015973;28;45371;-59
2022/10/06 08:47:18;;;;;;;;;6.60;4.20;;;;;15.30;59.03;102549.34;5016221;28;45351;-59
2022/10/06 08:49:47;;;;;;;;;4.40;2.40;;;;;15.30;58.83;102552.09;5016223;28;45335;-59
2022/10/06 08:52:46;;;;;;;;;5.00;2.40;;;;;15.15;59.02;102523.66;5017390;28;46726;-60
2022/10/06 08:55:11;;;;;;;;;4.20;3.00;;;;;15.35;58.64;102561.69;5016360;28;45358;-59
2022/10/06 08:57:49;;;;;;;;;4.75;2.50;;;;;15.36;58.37;102552.38;5017882;28;45279;-60
2022/10/06 09:00:15;;;;;;;;;3.20;2.00;;;;;15.35;58.19;102553.41;4985854;28;45502;-58
2022/10/06 09:02:47;;;;;;;;;2.00;2.00;;;;;15.32;58.40;102549.97;4997516;28;46600;-58
2022/10/06 09:05:24;;;;;;;;;6.60;2.60;;;;;15.49;58.60;102560.78;4996384;28;45333;-57
2022/10/06 09:08:23;;;;;;;;;6.40;3.00;;;;;15.54;58.63;102568.47;4996368;28;45458;-58
2022/10/06 09:11:14;;;;;;;;;2.80;2.00;;;;;15.55;57.93;102567.41;4997653;28;45385;-60
2022/10/06 09:13:43;;;;;;;;;2.80;2.40;;;;;15.59;57.90;102565.97;4979480;28;47585;-59
2022/10/06 09:16:10;;;;;;;;;2.60;2.60;;;;;15.40;58.01;102534.28;4979716;28;45365;-59
2022/10/06 09:18:37;;;;;;;;;3.00;3.00;;;;;15.65;57.93;102567.91;4996725;28;45284;-58
2022/10/06 09:21:10;;;;;;;;;3.20;2.00;;;;;15.52;58.04;102543.75;4996151;28;45320;-58
2022/10/06 09:23:48;;;;;;;;;4.60;4.60;;;;;15.75;57.76;102564.78;4996915;28;46244;-52
2022/10/06 09:26:23;;;;;;;;;5.40;3.00;;;;;15.64;57.65;102548.75;4996134;28;45454;-52
2022/10/06 09:28:50;;;;;;;;;6.20;5.00;;;;;15.82;57.24;102565.69;4979748;28;45480;-53
2022/10/06 09:31:28;;;;;;;;;6.20;2.00;;;;;15.83;57.83;102566.53;4995578;28;45588;-56
2022/10/06 09:34:17;;;;;;;;;6.20;4.40;;;;;15.81;57.85;102550.13;4995171;28;45891;-58
2022/10/06 09:37:03;;;;;;;;;7.80;2.60;;;;;15.99;57.16;102566.25;4971452;28;45476;-56
2022/10/06 09:39:35;;;;;;;;;3.00;3.00;;;;;16.10;57.25;102567.59;4989403;28;46143;-57
2022/10/06 09:42:23;;;;;;;;;3.00;3.00;;;;;16.19;56.92;102572.94;5016920;28;45377;-56
2022/10/06 09:44:49;;;;;;;;;3.80;3.20;;;;;16.29;56.52;102572.56;5016257;28;46535;-56
2022/10/06 09:47:27;;;;;;;;;4.40;3.20;;;;;16.22;56.04;102542.09;5016050;28;45412;-54
2022/10/06 09:50:11;;;;;;;;;7.80;4.80;;;;;16.49;56.25;102565.19;5016410;28;45459;-56
2022/10/06 09:52:37;;;;;;;;;9.20;8.60;;;;;16.61;55.94;102565.47;5015196;28;45545;-56
2022/10/06 09:55:11;;;;;;;;;11.60;9.40;;;;;16.38;55.47;102511.22;5016199;28;45629;-57
2022/10/06 09:57:37;;;;;;;;;12.00;11.60;;;;;16.86;55.28;102573.19;5016164;28;45964;-55
2022/10/06 10:00:04;;;;;;;;;9.50;7.25;;;;;17.00;54.84;102570.44;4998300;28;45425;-59
2022/10/06 10:02:31;;;;;;;;;7.60;7.40;;;;;16.89;54.65;102528.41;5016080;28;45532;-57
2022/10/06 10:04:57;;;;;;;;;3.00;3.00;;;;;17.04;54.25;102532.94;4972358;28;45832;-58
2022/10/06 10:07:23;;;;;;;;;6.00;5.00;;;;;17.27;54.06;102559.41;5007846;28;45576;-60
2022/10/06 10:09:49;;;;;;;;;4.20;2.60;;;;;17.15;53.53;102529.53;5010420;28;45398;-60
2022/10/06 10:12:23;;;;;;;;;2.40;1.80;;;;;17.43;53.11;102559.00;5009892;28;45505;-60
2022/10/06 10:14:50;;;;;;;;;3.40;3.00;;;;;17.41;52.46;102541.72;5009709;28;47130;-62
2022/10/06 10:17:18;;;;;;;;;3.00;2.60;;;;;17.63;52.38;102557.25;5011590;28;45519;-60
2022/10/06 10:19:46;;;;;;;;;2.00;2.00;;;;;17.57;52.24;102528.44;4993981;28;45594;-59
2022/10/06 10:22:23;;;;;;;;;3.40;2.00;;;;;17.57;51.35;102512.63;5011451;28;45400;-61
2022/10/06 10:24:54;;;;;;;;;3.00;2.00;;;;;17.97;51.09;102563.59;5008905;28;46220;-60
2022/10/06 10:27:35;;;;;;;;;5.80;3.00;;;;;17.82;51.14;102523.03;5010193;28;45419;-60
2022/10/06 10:30:11;;;;;;;;;3.40;1.00;;;;;18.18;51.20;102548.63;4994596;28;45445;-68
2022/10/06 10:32:54;;;;;;;;;3.20;2.20;;;;;18.34;50.42;102544.50;5008859;28;45575;-62
2022/10/06 10:35:41;;;;;;;;;6.60;3.00;;;;;18.51;50.07;102546.78;5011179;28;46143;-60
2022/10/06 10:38:18;;;;;;;;;1.60;1.40;;;;;18.56;49.72;102525.56;5025722;28;45440;-57
2022/10/06 10:41:19;;;;;;;;;2.80;2.00;;;;;18.80;49.55;102545.31;4977914;28;45616;-61
2022/10/06 10:43:50;;;;;;;;;2.80;2.60;;;;;18.52;48.78;102510.38;4974004;28;46107;-60
2022/10/06 10:46:42;;;;;;;;;7.00;4.20;;;;;18.84;49.11;102551.28;5041738;28;47016;-62
2022/10/06 10:49:24;;;;;;;;;8.00;4.20;;;;;19.13;48.41;102548.97;5008427;28;45435;-61
2022/10/06 10:51:52;;;;;;;;;2.20;1.40;;;;;19.39;48.28;102546.19;5011632;28;45612;-62
2022/10/06 10:54:33;;;;;;;;;3.80;3.80;;;;;19.54;47.62;102548.63;5009916;28;45739;-60
2022/10/06 10:56:59;;;;;;;;;5.00;3.60;;;;;19.50;47.58;102537.09;5008542;28;48315;-62
2022/10/06 10:59:34;;;;;;;;;8.25;3.00;;;;;19.36;47.39;102541.91;5007438;28;45826;-61
2022/10/06 11:02:20;;;;;;;;;5.20;4.20;;;;;19.08;48.07;102535.75;5041395;28;45572;-61
2022/10/06 11:04:49;;;;;;;;;4.00;4.00;;;;;18.34;48.14;102440.78;4990033;28;45669;-61
2022/10/06 11:07:38;;;;;;;;;7.40;4.80;;;;;18.80;47.70;102534.16;4990941;28;45977;-60
2022/10/06 11:10:24;;;;;;;;;4.00;2.00;;;;;18.70;47.55;102525.47;5010961;28;45570;-60
2022/10/06 11:13:19;;;;;;;;;3.60;2.20;;;;;18.66;44.04;102476.94;5009797;28;45565;-60
2022/10/06 11:16:18;;;;;;;;;3.20;1.40;;;;;19.36;44.74;102536.34;4990183;28;45859;-61
2022/10/06 11:18:53;;;;;;;;;2.40;2.00;;;;;19.77;45.46;102536.81;4989721;28;46411;-60
2022/10/06 11:21:20;;;;;;;;;2.60;1.40;;;;;20.09;44.17;102539.50;5007381;28;45658;-61
2022/10/06 11:23:56;;;;;;;;;1.00;1.00;;;;;20.10;42.31;102529.19;4992844;28;45421;-60
2022/10/06 11:26:28;;;;;;;;;3.40;2.00;;;;;20.36;43.36;102532.72;5008148;28;45428;-61
2022/10/06 11:29:24;;;;;;;;;3.00;1.40;;;;;20.30;43.22;102534.53;5007578;28;46193;-61
2022/10/06 11:31:59;;;;;;;;;2.60;2.60;;;;;20.02;43.34;102522.84;4994317;28;45357;-60
2022/10/06 11:34:24;;;;;;;;;3.20;1.20;;;;;19.83;42.90;102529.47;5007963;28;45494;-60
2022/10/06 11:37:19;;;;;;;;;4.50;1.50;;;;;19.38;43.00;102525.88;5009635;28;45682;-60
2022/10/06 11:39:57;;;;;;;;;2.40;2.40;;;;;19.14;44.10;102510.84;5008096;28;47663;-60
2022/10/06 11:42:37;;;;;;;;;4.80;3.40;;;;;19.22;44.81;102516.16;5008984;28;45486;-60
2022/10/06 11:45:04;;;;;;;;;5.00;4.00;;;;;19.33;44.08;102454.16;4977146;28;45503;-59
2022/10/06 11:47:53;;;;;;;;;2.20;1.60;;;;;24.26;37.03;102496.72;5010920;28;45583;-58